sensor_id;sensor_type;location;lat;lon;timestamp;P1;durP1;ratioP1;P2;durP2;ratioP2
17177;SDS011;8704;52.006;4.374;2023-07-02T00:00:49;12.02;;;4.43;;
17177;SDS011;8704;52.006;4.374;2023-07-02T00:03:18;10.00;;;4.72;;
17177;SDS011;8704;52.006;4.374;2023-07-02T00:05:52;11.55;;;4.45;;
17177;SDS011;8704;52.006;4.374;2023-07-02T00:08:21;10.73;;;5.25;;
17177;SDS011;8704;52.006;4.374;2023-07-02T00:10:49;13.50;;;5.43;;
17177;SDS011;8704;52.006;4.374;2023-07-02T00:13:17;16.75;;;6.50;;
17177;SDS011;8704;52.006;4.374;2023-07-02T00:15:45;15.68;;;6.68;;
17177;SDS011;8704;52.006;4.374;2023-07-02T00:18:13;15.25;;;6.75;;
17177;SDS011;8704;52.006;4.374;2023-07-02T00:20:43;16.70;;;7.07;;
17177;SDS011;8704;52.006;4.374;2023-07-02T00:23:12;18.85;;;7.60;;
17177;SDS011;8704;52.006;4.374;2023-07-02T00:25:40;16.05;;;7.50;;
17177;SDS011;8704;52.006;4.374;2023-07-02T00:28:08;18.52;;;7.72;;
17177;SDS011;8704;52.006;4.374;2023-07-02T00:30:36;17.63;;;8.38;;
17177;SDS011;8704;52.006;4.374;2023-07-02T00:33:04;18.45;;;8.30;;
17177;SDS011;8704;52.006;4.374;2023-07-02T00:35:33;16.73;;;7.63;;
17177;SDS011;8704;52.006;4.374;2023-07-02T00:38:01;18.38;;;7.88;;
17177;SDS011;8704;52.006;4.374;2023-07-02T00:40:30;18.55;;;8.27;;
17177;SDS011;8704;52.006;4.374;2023-07-02T00:42:58;17.98;;;8.55;;
17177;SDS011;8704;52.006;4.374;2023-07-02T00:45:26;22.83;;;8.35;;
17177;SDS011;8704;52.006;4.374;2023-07-02T00:47:54;18.50;;;8.25;;
17177;SDS011;8704;52.006;4.374;2023-07-02T00:50:23;17.92;;;8.35;;
17177;SDS011;8704;52.006;4.374;2023-07-02T00:52:52;19.77;;;7.80;;
17177;SDS011;8704;52.006;4.374;2023-07-02T00:55:21;20.58;;;8.85;;
17177;SDS011;8704;52.006;4.374;2023-07-02T00:57:50;19.52;;;8.15;;
17177;SDS011;8704;52.006;4.374;2023-07-02T01:00:18;22.80;;;8.40;;
17177;SDS011;8704;52.006;4.374;2023-07-02T01:02:52;18.10;;;7.85;;
17177;SDS011;8704;52.006;4.374;2023-07-02T01:05:23;17.55;;;8.30;;
17177;SDS011;8704;52.006;4.374;2023-07-02T01:07:52;17.83;;;8.70;;
17177;SDS011;8704;52.006;4.374;2023-07-02T01:10:20;21.67;;;8.38;;
17177;SDS011;8704;52.006;4.374;2023-07-02T01:12:48;16.42;;;7.72;;
17177;SDS011;8704;52.006;4.374;2023-07-02T01:15:18;21.30;;;8.70;;
17177;SDS011;8704;52.006;4.374;2023-07-02T01:17:46;17.95;;;7.70;;
17177;SDS011;8704;52.006;4.374;2023-07-02T01:20:16;15.82;;;7.80;;
17177;SDS011;8704;52.006;4.374;2023-07-02T01:22:46;19.50;;;8.40;;
17177;SDS011;8704;52.006;4.374;2023-07-02T01:25:17;18.80;;;8.27;;
17177;SDS011;8704;52.006;4.374;2023-07-02T01:27:50;24.65;;;8.98;;
17177;SDS011;8704;52.006;4.374;2023-07-02T01:30:19;21.90;;;7.95;;
17177;SDS011;8704;52.006;4.374;2023-07-02T01:32:47;17.08;;;8.50;;
17177;SDS011;8704;52.006;4.374;2023-07-02T01:35:17;17.95;;;8.40;;
17177;SDS011;8704;52.006;4.374;2023-07-02T01:37:45;17.90;;;8.27;;
17177;SDS011;8704;52.006;4.374;2023-07-02T01:40:13;23.35;;;8.48;;
17177;SDS011;8704;52.006;4.374;2023-07-02T01:42:41;21.63;;;9.05;;
17177;SDS011;8704;52.006;4.374;2023-07-02T01:45:09;19.48;;;8.68;;
17177;SDS011;8704;52.006;4.374;2023-07-02T01:47:38;21.30;;;8.48;;
17177;SDS011;8704;52.006;4.374;2023-07-02T01:50:06;20.30;;;9.18;;
17177;SDS011;8704;52.006;4.374;2023-07-02T01:52:36;18.95;;;9.35;;
17177;SDS011;8704;52.006;4.374;2023-07-02T01:55:04;17.40;;;8.60;;
17177;SDS011;8704;52.006;4.374;2023-07-02T01:57:32;20.33;;;8.90;;
17177;SDS011;8704;52.006;4.374;2023-07-02T02:00:00;19.48;;;8.40;;
17177;SDS011;8704;52.006;4.374;2023-07-02T02:02:29;20.15;;;8.77;;
17177;SDS011;8704;52.006;4.374;2023-07-02T02:04:57;17.00;;;8.60;;
17177;SDS011;8704;52.006;4.374;2023-07-02T02:07:26;21.10;;;8.52;;
17177;SDS011;8704;52.006;4.374;2023-07-02T02:09:55;22.15;;;8.88;;
17177;SDS011;8704;52.006;4.374;2023-07-02T02:12:23;24.80;;;9.32;;
17177;SDS011;8704;52.006;4.374;2023-07-02T02:14:51;23.88;;;9.30;;
17177;SDS011;8704;52.006;4.374;2023-07-02T02:17:19;19.65;;;9.27;;
17177;SDS011;8704;52.006;4.374;2023-07-02T02:19:47;21.65;;;9.02;;
17177;SDS011;8704;52.006;4.374;2023-07-02T02:22:15;22.02;;;9.43;;
17177;SDS011;8704;52.006;4.374;2023-07-02T02:24:44;19.55;;;9.02;;
17177;SDS011;8704;52.006;4.374;2023-07-02T02:27:13;24.98;;;9.13;;
17177;SDS011;8704;52.006;4.374;2023-07-02T02:29:41;25.80;;;9.48;;
17177;SDS011;8704;52.006;4.374;2023-07-02T02:32:09;20.85;;;8.88;;
17177;SDS011;8704;52.006;4.374;2023-07-02T02:34:37;25.40;;;9.95;;
17177;SDS011;8704;52.006;4.374;2023-07-02T02:37:05;22.55;;;8.55;;
17177;SDS011;8704;52.006;4.374;2023-07-02T02:39:33;28.58;;;9.30;;
17177;SDS011;8704;52.006;4.374;2023-07-02T02:42:01;26.33;;;8.73;;
17177;SDS011;8704;52.006;4.374;2023-07-02T02:44:31;20.13;;;9.15;;
17177;SDS011;8704;52.006;4.374;2023-07-02T02:46:59;21.15;;;9.20;;
17177;SDS011;8704;52.006;4.374;2023-07-02T02:49:27;25.48;;;9.70;;
17177;SDS011;8704;52.006;4.374;2023-07-02T02:51:55;20.25;;;8.82;;
17177;SDS011;8704;52.006;4.374;2023-07-02T02:54:23;21.23;;;9.15;;
17177;SDS011;8704;52.006;4.374;2023-07-02T02:56:51;26.95;;;9.45;;
17177;SDS011;8704;52.006;4.374;2023-07-02T02:59:19;24.75;;;8.85;;
17177;SDS011;8704;52.006;4.374;2023-07-02T03:01:49;22.52;;;8.73;;
17177;SDS011;8704;52.006;4.374;2023-07-02T03:04:18;22.02;;;8.85;;
17177;SDS011;8704;52.006;4.374;2023-07-02T03:06:51;20.27;;;8.45;;
17177;SDS011;8704;52.006;4.374;2023-07-02T03:09:19;23.30;;;9.23;;
17177;SDS011;8704;52.006;4.374;2023-07-02T03:11:47;23.08;;;8.82;;
17177;SDS011;8704;52.006;4.374;2023-07-02T03:14:16;21.48;;;8.52;;
17177;SDS011;8704;52.006;4.374;2023-07-02T03:16:44;24.17;;;8.95;;
17177;SDS011;8704;52.006;4.374;2023-07-02T03:19:14;26.10;;;9.23;;
17177;SDS011;8704;52.006;4.374;2023-07-02T03:21:42;17.30;;;7.95;;
17177;SDS011;8704;52.006;4.374;2023-07-02T03:24:11;18.30;;;9.07;;
17177;SDS011;8704;52.006;4.374;2023-07-02T03:26:39;21.80;;;9.13;;
17177;SDS011;8704;52.006;4.374;2023-07-02T03:29:07;23.52;;;8.88;;
17177;SDS011;8704;52.006;4.374;2023-07-02T03:31:36;21.92;;;8.80;;
17177;SDS011;8704;52.006;4.374;2023-07-02T03:34:06;26.50;;;8.88;;
17177;SDS011;8704;52.006;4.374;2023-07-02T03:36:37;22.08;;;8.82;;
17177;SDS011;8704;52.006;4.374;2023-07-02T03:39:05;22.73;;;8.50;;
17177;SDS011;8704;52.006;4.374;2023-07-02T03:41:36;18.42;;;8.30;;
17177;SDS011;8704;52.006;4.374;2023-07-02T03:44:04;19.73;;;8.10;;
17177;SDS011;8704;52.006;4.374;2023-07-02T03:46:32;18.33;;;7.72;;
17177;SDS011;8704;52.006;4.374;2023-07-02T03:49:00;23.35;;;8.20;;
17177;SDS011;8704;52.006;4.374;2023-07-02T03:51:29;17.30;;;7.80;;
17177;SDS011;8704;52.006;4.374;2023-07-02T03:53:59;22.17;;;8.00;;
17177;SDS011;8704;52.006;4.374;2023-07-02T03:56:26;19.80;;;7.53;;
17177;SDS011;8704;52.006;4.374;2023-07-02T03:58:54;18.40;;;7.60;;
17177;SDS011;8704;52.006;4.374;2023-07-02T04:01:23;20.02;;;7.30;;
17177;SDS011;8704;52.006;4.374;2023-07-02T04:03:51;16.42;;;7.40;;
17177;SDS011;8704;52.006;4.374;2023-07-02T04:06:20;17.90;;;7.20;;
17177;SDS011;8704;52.006;4.374;2023-07-02T04:08:49;19.10;;;7.65;;
17177;SDS011;8704;52.006;4.374;2023-07-02T04:11:18;21.52;;;7.50;;
17177;SDS011;8704;52.006;4.374;2023-07-02T04:13:46;19.35;;;7.15;;
17177;SDS011;8704;52.006;4.374;2023-07-02T04:16:14;17.83;;;6.93;;
17177;SDS011;8704;52.006;4.374;2023-07-02T04:18:43;18.67;;;7.20;;
17177;SDS011;8704;52.006;4.374;2023-07-02T04:21:11;20.42;;;7.82;;
17177;SDS011;8704;52.006;4.374;2023-07-02T04:23:39;18.88;;;8.18;;
17177;SDS011;8704;52.006;4.374;2023-07-02T04:26:07;16.52;;;7.30;;
17177;SDS011;8704;52.006;4.374;2023-07-02T04:28:57;16.23;;;7.78;;
17177;SDS011;8704;52.006;4.374;2023-07-02T04:31:26;18.58;;;7.57;;
17177;SDS011;8704;52.006;4.374;2023-07-02T04:33:54;18.05;;;7.90;;
17177;SDS011;8704;52.006;4.374;2023-07-02T04:36:22;17.98;;;7.55;;
17177;SDS011;8704;52.006;4.374;2023-07-02T04:38:50;17.08;;;7.13;;
17177;SDS011;8704;52.006;4.374;2023-07-02T04:41:18;21.40;;;7.32;;
17177;SDS011;8704;52.006;4.374;2023-07-02T04:43:46;16.92;;;7.38;;
17177;SDS011;8704;52.006;4.374;2023-07-02T04:46:16;15.63;;;6.45;;
17177;SDS011;8704;52.006;4.374;2023-07-02T04:48:44;18.35;;;7.43;;
17177;SDS011;8704;52.006;4.374;2023-07-02T04:51:13;19.00;;;6.70;;
17177;SDS011;8704;52.006;4.374;2023-07-02T04:53:41;21.10;;;6.88;;
17177;SDS011;8704;52.006;4.374;2023-07-02T04:56:09;19.65;;;6.47;;
17177;SDS011;8704;52.006;4.374;2023-07-02T04:58:37;16.35;;;6.53;;
17177;SDS011;8704;52.006;4.374;2023-07-02T05:01:05;15.73;;;6.88;;
17177;SDS011;8704;52.006;4.374;2023-07-02T05:03:36;17.27;;;7.18;;
17177;SDS011;8704;52.006;4.374;2023-07-02T05:06:05;18.52;;;6.40;;
17177;SDS011;8704;52.006;4.374;2023-07-02T05:08:33;15.77;;;6.43;;
17177;SDS011;8704;52.006;4.374;2023-07-02T05:11:03;14.98;;;6.53;;
17177;SDS011;8704;52.006;4.374;2023-07-02T05:13:30;16.48;;;6.80;;
17177;SDS011;8704;52.006;4.374;2023-07-02T05:15:59;21.33;;;6.93;;
17177;SDS011;8704;52.006;4.374;2023-07-02T05:18:26;20.33;;;6.88;;
17177;SDS011;8704;52.006;4.374;2023-07-02T05:20:56;17.35;;;6.50;;
17177;SDS011;8704;52.006;4.374;2023-07-02T05:23:24;18.65;;;6.65;;
17177;SDS011;8704;52.006;4.374;2023-07-02T05:25:52;22.23;;;7.30;;
17177;SDS011;8704;52.006;4.374;2023-07-02T05:28:20;17.05;;;7.00;;
17177;SDS011;8704;52.006;4.374;2023-07-02T05:30:48;23.35;;;7.63;;
17177;SDS011;8704;52.006;4.374;2023-07-02T05:33:17;15.07;;;6.72;;
17177;SDS011;8704;52.006;4.374;2023-07-02T05:35:45;20.27;;;6.60;;
17177;SDS011;8704;52.006;4.374;2023-07-02T05:38:15;17.27;;;6.72;;
17177;SDS011;8704;52.006;4.374;2023-07-02T05:40:45;18.10;;;6.45;;
17177;SDS011;8704;52.006;4.374;2023-07-02T05:43:13;22.63;;;7.05;;
17177;SDS011;8704;52.006;4.374;2023-07-02T05:45:41;18.23;;;6.47;;
17177;SDS011;8704;52.006;4.374;2023-07-02T05:48:09;20.35;;;6.68;;
17177;SDS011;8704;52.006;4.374;2023-07-02T05:50:38;18.98;;;6.65;;
17177;SDS011;8704;52.006;4.374;2023-07-02T05:53:06;15.98;;;6.32;;
17177;SDS011;8704;52.006;4.374;2023-07-02T05:55:37;19.65;;;6.85;;
17177;SDS011;8704;52.006;4.374;2023-07-02T05:58:05;18.13;;;6.75;;
17177;SDS011;8704;52.006;4.374;2023-07-02T06:00:33;16.27;;;6.22;;
17177;SDS011;8704;52.006;4.374;2023-07-02T06:03:01;17.88;;;6.40;;
17177;SDS011;8704;52.006;4.374;2023-07-02T06:05:30;17.20;;;6.47;;
17177;SDS011;8704;52.006;4.374;2023-07-02T06:07:58;13.70;;;6.57;;
17177;SDS011;8704;52.006;4.374;2023-07-02T06:10:26;13.75;;;5.63;;
17177;SDS011;8704;52.006;4.374;2023-07-02T06:12:56;18.77;;;6.97;;
17177;SDS011;8704;52.006;4.374;2023-07-02T06:15:24;20.80;;;6.45;;
17177;SDS011;8704;52.006;4.374;2023-07-02T06:17:52;16.55;;;6.20;;
17177;SDS011;8704;52.006;4.374;2023-07-02T06:20:20;21.15;;;6.60;;
17177;SDS011;8704;52.006;4.374;2023-07-02T06:22:48;18.25;;;6.20;;
17177;SDS011;8704;52.006;4.374;2023-07-02T06:25:16;15.82;;;6.85;;
17177;SDS011;8704;52.006;4.374;2023-07-02T06:27:44;22.92;;;6.25;;
17177;SDS011;8704;52.006;4.374;2023-07-02T06:30:13;14.88;;;6.60;;
17177;SDS011;8704;52.006;4.374;2023-07-02T06:32:42;13.30;;;6.20;;
17177;SDS011;8704;52.006;4.374;2023-07-02T06:35:10;18.67;;;6.75;;
17177;SDS011;8704;52.006;4.374;2023-07-02T06:37:38;20.30;;;6.75;;
17177;SDS011;8704;52.006;4.374;2023-07-02T06:40:06;18.33;;;6.47;;
17177;SDS011;8704;52.006;4.374;2023-07-02T06:42:35;17.33;;;7.03;;
17177;SDS011;8704;52.006;4.374;2023-07-02T06:45:03;15.48;;;6.05;;
17177;SDS011;8704;52.006;4.374;2023-07-02T06:47:33;18.50;;;6.13;;
17177;SDS011;8704;52.006;4.374;2023-07-02T06:50:02;15.00;;;6.13;;
17177;SDS011;8704;52.006;4.374;2023-07-02T06:52:30;18.52;;;5.75;;
17177;SDS011;8704;52.006;4.374;2023-07-02T06:54:58;19.90;;;6.97;;
17177;SDS011;8704;52.006;4.374;2023-07-02T06:57:26;17.42;;;6.38;;
17177;SDS011;8704;52.006;4.374;2023-07-02T06:59:56;12.38;;;5.60;;
17177;SDS011;8704;52.006;4.374;2023-07-02T07:02:26;16.25;;;5.88;;
17177;SDS011;8704;52.006;4.374;2023-07-02T07:04:55;16.15;;;5.97;;
17177;SDS011;8704;52.006;4.374;2023-07-02T07:07:24;13.63;;;6.05;;
17177;SDS011;8704;52.006;4.374;2023-07-02T07:09:52;16.00;;;5.90;;
17177;SDS011;8704;52.006;4.374;2023-07-02T07:12:20;13.90;;;5.78;;
17177;SDS011;8704;52.006;4.374;2023-07-02T07:14:48;13.10;;;5.57;;
17177;SDS011;8704;52.006;4.374;2023-07-02T07:17:16;13.43;;;5.20;;
17177;SDS011;8704;52.006;4.374;2023-07-02T07:19:44;12.63;;;6.18;;
17177;SDS011;8704;52.006;4.374;2023-07-02T07:22:14;14.13;;;5.90;;
17177;SDS011;8704;52.006;4.374;2023-07-02T07:24:42;15.13;;;6.05;;
17177;SDS011;8704;52.006;4.374;2023-07-02T07:27:10;13.63;;;6.28;;
17177;SDS011;8704;52.006;4.374;2023-07-02T07:29:38;18.42;;;6.07;;
17177;SDS011;8704;52.006;4.374;2023-07-02T07:32:06;14.30;;;5.70;;
17177;SDS011;8704;52.006;4.374;2023-07-02T07:34:35;15.13;;;5.97;;
17177;SDS011;8704;52.006;4.374;2023-07-02T07:37:03;14.52;;;5.80;;
17177;SDS011;8704;52.006;4.374;2023-07-02T07:39:33;16.65;;;6.13;;
17177;SDS011;8704;52.006;4.374;2023-07-02T07:42:03;15.73;;;5.90;;
17177;SDS011;8704;52.006;4.374;2023-07-02T07:44:32;15.60;;;5.65;;
17177;SDS011;8704;52.006;4.374;2023-07-02T07:47:00;13.95;;;5.72;;
17177;SDS011;8704;52.006;4.374;2023-07-02T07:49:28;12.52;;;5.15;;
17177;SDS011;8704;52.006;4.374;2023-07-02T07:51:56;14.38;;;5.60;;
17177;SDS011;8704;52.006;4.374;2023-07-02T07:54:24;12.38;;;5.53;;
17177;SDS011;8704;52.006;4.374;2023-07-02T07:56:54;17.08;;;5.57;;
17177;SDS011;8704;52.006;4.374;2023-07-02T07:59:22;14.80;;;5.53;;
17177;SDS011;8704;52.006;4.374;2023-07-02T08:01:50;12.35;;;5.47;;
17177;SDS011;8704;52.006;4.374;2023-07-02T08:04:18;16.52;;;6.15;;
17177;SDS011;8704;52.006;4.374;2023-07-02T08:06:46;13.02;;;5.70;;
17177;SDS011;8704;52.006;4.374;2023-07-02T08:09:14;17.10;;;5.97;;
17177;SDS011;8704;52.006;4.374;2023-07-02T08:11:42;14.13;;;5.68;;
17177;SDS011;8704;52.006;4.374;2023-07-02T08:14:12;8.63;;;4.53;;
17177;SDS011;8704;52.006;4.374;2023-07-02T08:16:40;11.02;;;5.07;;
17177;SDS011;8704;52.006;4.374;2023-07-02T08:19:08;11.73;;;5.18;;
17177;SDS011;8704;52.006;4.374;2023-07-02T08:21:36;15.35;;;5.30;;
17177;SDS011;8704;52.006;4.374;2023-07-02T08:24:04;15.10;;;4.97;;
17177;SDS011;8704;52.006;4.374;2023-07-02T08:26:33;15.48;;;4.95;;
17177;SDS011;8704;52.006;4.374;2023-07-02T08:29:01;20.00;;;5.70;;
17177;SDS011;8704;52.006;4.374;2023-07-02T08:31:30;16.20;;;6.15;;
17177;SDS011;8704;52.006;4.374;2023-07-02T08:33:59;16.02;;;6.20;;
17177;SDS011;8704;52.006;4.374;2023-07-02T08:36:27;18.45;;;5.93;;
17177;SDS011;8704;52.006;4.374;2023-07-02T08:38:55;14.73;;;5.53;;
17177;SDS011;8704;52.006;4.374;2023-07-02T08:41:23;11.60;;;5.00;;
17177;SDS011;8704;52.006;4.374;2023-07-02T08:43:54;12.80;;;5.55;;
17177;SDS011;8704;52.006;4.374;2023-07-02T08:48:52;13.80;;;4.50;;
17177;SDS011;8704;52.006;4.374;2023-07-02T08:51:20;11.95;;;4.32;;
17177;SDS011;8704;52.006;4.374;2023-07-02T08:53:49;12.73;;;4.70;;
17177;SDS011;8704;52.006;4.374;2023-07-02T08:56:17;12.10;;;4.57;;
17177;SDS011;8704;52.006;4.374;2023-07-02T08:58:45;12.43;;;4.80;;
17177;SDS011;8704;52.006;4.374;2023-07-02T09:01:13;16.55;;;4.90;;
17177;SDS011;8704;52.006;4.374;2023-07-02T09:03:42;15.27;;;5.10;;
17177;SDS011;8704;52.006;4.374;2023-07-02T09:06:11;11.15;;;4.90;;
17177;SDS011;8704;52.006;4.374;2023-07-02T09:08:40;14.55;;;4.60;;
17177;SDS011;8704;52.006;4.374;2023-07-02T09:11:08;11.15;;;3.95;;
17177;SDS011;8704;52.006;4.374;2023-07-02T09:13:46;10.93;;;4.15;;
17177;SDS011;8704;52.006;4.374;2023-07-02T09:16:22;11.18;;;4.30;;
17177;SDS011;8704;52.006;4.374;2023-07-02T09:18:55;8.32;;;4.43;;
17177;SDS011;8704;52.006;4.374;2023-07-02T09:21:37;15.65;;;5.03;;
17177;SDS011;8704;52.006;4.374;2023-07-02T09:24:15;11.20;;;4.72;;
17177;SDS011;8704;52.006;4.374;2023-07-02T09:26:45;10.25;;;4.75;;
17177;SDS011;8704;52.006;4.374;2023-07-02T09:29:13;11.15;;;5.00;;
17177;SDS011;8704;52.006;4.374;2023-07-02T09:31:44;14.00;;;4.53;;
17177;SDS011;8704;52.006;4.374;2023-07-02T09:34:33;11.02;;;4.03;;
17177;SDS011;8704;52.006;4.374;2023-07-02T09:37:04;13.75;;;4.78;;
17177;SDS011;8704;52.006;4.374;2023-07-02T09:39:33;10.55;;;4.20;;
17177;SDS011;8704;52.006;4.374;2023-07-02T09:42:02;10.63;;;4.35;;
17177;SDS011;8704;52.006;4.374;2023-07-02T09:44:34;11.00;;;3.88;;
17177;SDS011;8704;52.006;4.374;2023-07-02T09:47:03;10.40;;;4.22;;
17177;SDS011;8704;52.006;4.374;2023-07-02T09:49:33;9.57;;;3.60;;
17177;SDS011;8704;52.006;4.374;2023-07-02T09:52:04;9.40;;;4.22;;
17177;SDS011;8704;52.006;4.374;2023-07-02T09:54:33;11.02;;;4.35;;
17177;SDS011;8704;52.006;4.374;2023-07-02T09:57:01;8.13;;;3.45;;
17177;SDS011;8704;52.006;4.374;2023-07-02T09:59:30;8.60;;;3.70;;
17177;SDS011;8704;52.006;4.374;2023-07-02T10:01:58;9.05;;;4.10;;
17177;SDS011;8704;52.006;4.374;2023-07-02T10:04:27;10.52;;;4.28;;
17177;SDS011;8704;52.006;4.374;2023-07-02T10:06:56;10.88;;;4.20;;
17177;SDS011;8704;52.006;4.374;2023-07-02T10:09:35;11.25;;;4.20;;
17177;SDS011;8704;52.006;4.374;2023-07-02T10:12:17;9.30;;;3.78;;
17177;SDS011;8704;52.006;4.374;2023-07-02T10:14:46;7.22;;;3.65;;
17177;SDS011;8704;52.006;4.374;2023-07-02T10:17:24;7.13;;;3.85;;
17177;SDS011;8704;52.006;4.374;2023-07-02T10:19:55;8.35;;;3.70;;
17177;SDS011;8704;52.006;4.374;2023-07-02T10:22:24;8.52;;;3.88;;
17177;SDS011;8704;52.006;4.374;2023-07-02T10:24:54;9.88;;;4.30;;
17177;SDS011;8704;52.006;4.374;2023-07-02T10:27:32;7.07;;;4.05;;
17177;SDS011;8704;52.006;4.374;2023-07-02T10:30:03;10.40;;;4.50;;
17177;SDS011;8704;52.006;4.374;2023-07-02T10:32:32;11.00;;;4.55;;
17177;SDS011;8704;52.006;4.374;2023-07-02T10:35:01;9.85;;;4.47;;
17177;SDS011;8704;52.006;4.374;2023-07-02T10:37:40;11.13;;;4.57;;
17177;SDS011;8704;52.006;4.374;2023-07-02T10:40:10;11.50;;;4.63;;
17177;SDS011;8704;52.006;4.374;2023-07-02T10:42:45;9.55;;;4.38;;
17177;SDS011;8704;52.006;4.374;2023-07-02T10:45:15;11.95;;;4.70;;
17177;SDS011;8704;52.006;4.374;2023-07-02T10:47:43;10.50;;;4.60;;
17177;SDS011;8704;52.006;4.374;2023-07-02T10:50:15;12.07;;;4.47;;
17177;SDS011;8704;52.006;4.374;2023-07-02T10:52:44;7.28;;;4.15;;
17177;SDS011;8704;52.006;4.374;2023-07-02T10:55:17;10.07;;;4.28;;
17177;SDS011;8704;52.006;4.374;2023-07-02T10:57:46;8.88;;;4.03;;
17177;SDS011;8704;52.006;4.374;2023-07-02T11:00:14;10.93;;;4.60;;
17177;SDS011;8704;52.006;4.374;2023-07-02T11:02:43;10.27;;;4.57;;
17177;SDS011;8704;52.006;4.374;2023-07-02T11:05:11;10.07;;;4.78;;
17177;SDS011;8704;52.006;4.374;2023-07-02T11:07:40;13.52;;;5.07;;
17177;SDS011;8704;52.006;4.374;2023-07-02T11:10:10;10.95;;;4.65;;
17177;SDS011;8704;52.006;4.374;2023-07-02T11:12:46;9.80;;;4.25;;
17177;SDS011;8704;52.006;4.374;2023-07-02T11:15:14;7.22;;;4.20;;
17177;SDS011;8704;52.006;4.374;2023-07-02T11:17:43;8.55;;;4.32;;
17177;SDS011;8704;52.006;4.374;2023-07-02T11:20:12;10.45;;;4.95;;
17177;SDS011;8704;52.006;4.374;2023-07-02T11:22:41;12.38;;;4.97;;
17177;SDS011;8704;52.006;4.374;2023-07-02T11:25:10;10.50;;;5.07;;
17177;SDS011;8704;52.006;4.374;2023-07-02T11:27:42;11.45;;;4.93;;
17177;SDS011;8704;52.006;4.374;2023-07-02T11:30:12;11.52;;;5.38;;
17177;SDS011;8704;52.006;4.374;2023-07-02T11:32:47;9.77;;;4.97;;
17177;SDS011;8704;52.006;4.374;2023-07-02T11:35:16;11.45;;;5.00;;
17177;SDS011;8704;52.006;4.374;2023-07-02T11:37:44;9.95;;;5.25;;
17177;SDS011;8704;52.006;4.374;2023-07-02T11:40:16;11.05;;;5.18;;
17177;SDS011;8704;52.006;4.374;2023-07-02T11:42:45;9.55;;;4.80;;
17177;SDS011;8704;52.006;4.374;2023-07-02T11:45:14;11.77;;;5.35;;
17177;SDS011;8704;52.006;4.374;2023-07-02T11:47:42;11.57;;;5.47;;
17177;SDS011;8704;52.006;4.374;2023-07-02T11:50:11;9.57;;;5.53;;
17177;SDS011;8704;52.006;4.374;2023-07-02T11:52:52;10.50;;;5.43;;
17177;SDS011;8704;52.006;4.374;2023-07-02T11:55:21;10.85;;;5.32;;
17177;SDS011;8704;52.006;4.374;2023-07-02T11:57:49;11.27;;;5.57;;
17177;SDS011;8704;52.006;4.374;2023-07-02T12:00:18;10.10;;;5.40;;
17177;SDS011;8704;52.006;4.374;2023-07-02T12:02:47;14.27;;;5.68;;
17177;SDS011;8704;52.006;4.374;2023-07-02T12:05:17;14.15;;;5.78;;
17177;SDS011;8704;52.006;4.374;2023-07-02T12:07:45;10.05;;;4.85;;
17177;SDS011;8704;52.006;4.374;2023-07-02T12:10:13;12.68;;;5.47;;
17177;SDS011;8704;52.006;4.374;2023-07-02T12:12:42;9.05;;;4.85;;
17177;SDS011;8704;52.006;4.374;2023-07-02T12:15:10;8.60;;;4.63;;
17177;SDS011;8704;52.006;4.374;2023-07-02T12:17:39;8.75;;;4.60;;
17177;SDS011;8704;52.006;4.374;2023-07-02T12:20:08;11.13;;;5.43;;
17177;SDS011;8704;52.006;4.374;2023-07-02T12:22:37;10.43;;;5.40;;
17177;SDS011;8704;52.006;4.374;2023-07-02T12:25:05;12.43;;;5.53;;
17177;SDS011;8704;52.006;4.374;2023-07-02T12:27:33;9.90;;;5.28;;
17177;SDS011;8704;52.006;4.374;2023-07-02T12:30:01;10.07;;;4.82;;
17177;SDS011;8704;52.006;4.374;2023-07-02T12:32:30;10.73;;;5.57;;
17177;SDS011;8704;52.006;4.374;2023-07-02T12:34:59;15.05;;;5.55;;
17177;SDS011;8704;52.006;4.374;2023-07-02T12:37:27;10.02;;;5.68;;
17177;SDS011;8704;52.006;4.374;2023-07-02T12:39:55;11.48;;;5.55;;
17177;SDS011;8704;52.006;4.374;2023-07-02T12:42:24;10.15;;;5.57;;
17177;SDS011;8704;52.006;4.374;2023-07-02T12:44:52;8.93;;;5.07;;
17177;SDS011;8704;52.006;4.374;2023-07-02T12:47:20;10.25;;;5.30;;
17177;SDS011;8704;52.006;4.374;2023-07-02T12:49:48;10.77;;;5.05;;
17177;SDS011;8704;52.006;4.374;2023-07-02T12:52:18;11.65;;;5.68;;
17177;SDS011;8704;52.006;4.374;2023-07-02T12:54:46;8.90;;;4.97;;
17177;SDS011;8704;52.006;4.374;2023-07-02T12:57:14;10.55;;;5.60;;
17177;SDS011;8704;52.006;4.374;2023-07-02T12:59:45;12.47;;;5.80;;
17177;SDS011;8704;52.006;4.374;2023-07-02T13:02:13;9.30;;;5.13;;
17177;SDS011;8704;52.006;4.374;2023-07-02T13:04:42;11.10;;;4.82;;
17177;SDS011;8704;52.006;4.374;2023-07-02T13:07:10;9.10;;;4.97;;
17177;SDS011;8704;52.006;4.374;2023-07-02T13:09:40;10.45;;;4.85;;
17177;SDS011;8704;52.006;4.374;2023-07-02T13:12:12;11.20;;;4.93;;
17177;SDS011;8704;52.006;4.374;2023-07-02T13:14:42;9.55;;;4.45;;
17177;SDS011;8704;52.006;4.374;2023-07-02T13:17:10;9.77;;;4.55;;
17177;SDS011;8704;52.006;4.374;2023-07-02T13:19:38;7.82;;;4.13;;
17177;SDS011;8704;52.006;4.374;2023-07-02T13:22:06;12.25;;;4.57;;
17177;SDS011;8704;52.006;4.374;2023-07-02T13:24:34;8.45;;;4.43;;
17177;SDS011;8704;52.006;4.374;2023-07-02T13:27:05;9.45;;;4.43;;
17177;SDS011;8704;52.006;4.374;2023-07-02T13:29:38;11.07;;;4.70;;
17177;SDS011;8704;52.006;4.374;2023-07-02T13:32:07;9.55;;;4.53;;
17177;SDS011;8704;52.006;4.374;2023-07-02T13:34:35;8.88;;;4.47;;
17177;SDS011;8704;52.006;4.374;2023-07-02T13:37:03;10.05;;;4.72;;
17177;SDS011;8704;52.006;4.374;2023-07-02T13:39:32;8.32;;;4.28;;
17177;SDS011;8704;52.006;4.374;2023-07-02T13:42:00;9.63;;;4.53;;
17177;SDS011;8704;52.006;4.374;2023-07-02T13:44:29;8.10;;;3.70;;
17177;SDS011;8704;52.006;4.374;2023-07-02T13:46:57;7.88;;;4.30;;
17177;SDS011;8704;52.006;4.374;2023-07-02T13:49:25;7.88;;;4.00;;
17177;SDS011;8704;52.006;4.374;2023-07-02T13:51:54;7.70;;;3.75;;
17177;SDS011;8704;52.006;4.374;2023-07-02T13:54:22;9.32;;;4.03;;
17177;SDS011;8704;52.006;4.374;2023-07-02T13:56:50;8.13;;;4.15;;
17177;SDS011;8704;52.006;4.374;2023-07-02T13:59:20;9.55;;;4.45;;
17177;SDS011;8704;52.006;4.374;2023-07-02T14:01:49;9.43;;;4.18;;
17177;SDS011;8704;52.006;4.374;2023-07-02T14:04:17;8.07;;;4.32;;
17177;SDS011;8704;52.006;4.374;2023-07-02T14:06:45;10.18;;;4.22;;
17177;SDS011;8704;52.006;4.374;2023-07-02T14:09:14;7.43;;;4.60;;
17177;SDS011;8704;52.006;4.374;2023-07-02T14:11:42;8.95;;;4.57;;
17177;SDS011;8704;52.006;4.374;2023-07-02T14:14:10;8.70;;;4.15;;
17177;SDS011;8704;52.006;4.374;2023-07-02T14:16:41;9.40;;;4.82;;
17177;SDS011;8704;52.006;4.374;2023-07-02T14:19:09;11.02;;;4.43;;
17177;SDS011;8704;52.006;4.374;2023-07-02T14:21:38;8.82;;;4.30;;
17177;SDS011;8704;52.006;4.374;2023-07-02T14:24:06;7.13;;;4.07;;
17177;SDS011;8704;52.006;4.374;2023-07-02T14:26:35;9.63;;;4.65;;
17177;SDS011;8704;52.006;4.374;2023-07-02T14:29:03;9.82;;;4.88;;
17177;SDS011;8704;52.006;4.374;2023-07-02T14:31:31;9.02;;;4.65;;
17177;SDS011;8704;52.006;4.374;2023-07-02T14:34:01;9.38;;;4.97;;
17177;SDS011;8704;52.006;4.374;2023-07-02T14:36:29;8.75;;;4.97;;
17177;SDS011;8704;52.006;4.374;2023-07-02T14:38:57;9.65;;;4.75;;
17177;SDS011;8704;52.006;4.374;2023-07-02T14:41:25;8.30;;;4.32;;
17177;SDS011;8704;52.006;4.374;2023-07-02T14:43:54;10.90;;;4.95;;
17177;SDS011;8704;52.006;4.374;2023-07-02T14:46:22;11.18;;;5.25;;
17177;SDS011;8704;52.006;4.374;2023-07-02T14:48:50;9.82;;;4.72;;
17177;SDS011;8704;52.006;4.374;2023-07-02T14:51:19;10.77;;;5.25;;
17177;SDS011;8704;52.006;4.374;2023-07-02T14:53:48;8.88;;;4.70;;
17177;SDS011;8704;52.006;4.374;2023-07-02T14:56:17;9.55;;;5.03;;
17177;SDS011;8704;52.006;4.374;2023-07-02T14:58:45;8.85;;;4.25;;
17177;SDS011;8704;52.006;4.374;2023-07-02T15:01:14;9.77;;;4.80;;
17177;SDS011;8704;52.006;4.374;2023-07-02T15:03:43;8.75;;;4.78;;